Terminal Aerodrome Forecast
Issued by NWS Wilmington, OH

Current Version | Previous Version | Graphics & Text | Print | Product List | Glossary On
Versions: 1 2 3 4 5 6 7 8 9 10 11 12 13 14 15 16 17 18 19
199
FTUS41 KILN 140527
TAFILN
TAF
KILN 140527Z 1406/1506 VRB03KT 5SM BR SKC
      TEMPO 1410/1412 2SM BR
     FM141300 17004KT P6SM SCT120
     FM141600 18008KT P6SM SCT100
     FM150400 19010KT P6SM SCT040 BKN080=

USA.gov is the U.S. government's official web portal to all federal, state and local government web resources and services.